Flight Track Log - Related Links

Times and Time Zones

All times are in EDT time to prevent confusion due to time zone crossing. See the DAL268 flight status page for this flight to view local times or setup timezone preferences in your user account.

Time Position Orientation Groundspeed Altitude Reporting Facility
EDT Latitude Longitude Course Direction KTS MPH feet Rate Location/Type
Thu 02:32:02 PM 37.6117 -122.3770 360° North 110 127  Level FlightAware ADS-B
Thu 02:32:21 PM 37.6229 -122.3700 26° Northeast 165 190 1,059 Level FlightAware ADS-B
Thu 02:32:36 PM 37.6326 -122.3640 26° Northeast 166 191 600 2,500 Climbing FlightAware ADS-B
Thu 02:32:45 PM 37.6384 -122.3580 39° Northeast 168 193 1,000 3,000 Climbing FlightAware ADS-B
Thu 02:32:48 PM 37.6402 -122.3560 41° Northeast 168 193 1,200 1,895 Climbing FlightAware ADS-B
Thu 02:33:04 PM 37.6489 -122.3440 48° Northeast 183 211 1,600 1,500 Climbing FlightAware ADS-B
Thu 02:33:20 PM 37.6581 -122.3300 50° Northeast 202 232 2,000 1,548 Climbing FlightAware ADS-B
Thu 02:33:35 PM 37.6680 -122.3160 48° Northeast 221 254 2,400 1,875 Climbing FlightAware ADS-B
Thu 02:33:52 PM 37.6792 -122.2990 50° Northeast 239 275 3,000 2,069 Climbing FlightAware ADS-B
Thu 02:34:04 PM 37.6888 -122.2870 45° Northeast 250 288 3,400 2,000 Climbing FlightAware ADS-B
Thu 02:34:07 PM 37.6916 -122.2840 40° Northeast 253 291 3,500 2,000 Climbing FlightAware ADS-B
Thu 02:34:10 PM 37.6946 -122.2820 28° Northeast 254 292 3,600 2,571 Climbing FlightAware ADS-B
Thu 02:34:14 PM 37.7000 -122.2790 24° Northeast 257 296 3,800 2,250 Climbing FlightAware ADS-B
Thu 02:34:18 PM 37.7044 -122.2780 10° North 259 298 3,900 1,500 Climbing FlightAware ADS-B
Thu 02:34:22 PM 37.7086 -122.2770 11° North 262 302 4,000 2,250 Climbing FlightAware ADS-B
Thu 02:34:26 PM 37.7136 -122.2770 360° North 263 303 4,200 3,000 Climbing FlightAware ADS-B
Thu 02:34:30 PM 37.7188 -122.2770 360° North 264 304 4,400 3,000 Climbing FlightAware ADS-B
Thu 02:34:40 PM 37.7303 -122.2770 360° North 265 305 4,900 3,000 Climbing FlightAware ADS-B
Thu 02:34:56 PM 37.7502 -122.2790 355° North 267 307 5,700 2,903 Climbing FlightAware ADS-B
Thu 02:35:11 PM 37.7694 -122.2800 358° North 272 313 6,400 3,000 Climbing FlightAware ADS-B
Thu 02:35:24 PM 37.7867 -122.2800 360° North 277 319 7,100 2,700 Climbing FlightAware ADS-B
Thu 02:35:31 PM 37.7945 -122.2770 17° North 279 321 7,300 2,700 Climbing FlightAware ADS-B
Thu 02:36:04 PM 37.8230 -122.2420 44° Northeast 289 333 8,900 2,875 Climbing FlightAware ADS-B
Thu 02:36:19 PM 37.8300 -122.2160 71° East 291 335 9,600 2,267 Climbing FlightAware ADS-B
Thu 02:36:49 PM 37.8403 -122.1650 76° East 312 359 10,600 1,524 Climbing FlightAware ADS-B
Thu 02:37:22 PM 37.8528 -122.1020 76° East 349 402 11,200 1,313 Climbing FlightAware ADS-B
Thu 02:37:53 PM 37.8660 -122.0390 75° East 371 427 12,000 1,552 Climbing FlightAware ADS-B
Thu 02:38:20 PM 37.8787 -121.9810 74° East 390 449 12,700 2,105 Climbing FlightAware ADS-B
Thu 02:38:50 PM 37.8921 -121.9140 76° East 394 453 14,000 2,419 Climbing FlightAware ADS-B
Thu 02:39:22 PM 37.9064 -121.8420 76° East 398 458 15,200 2,190 Climbing FlightAware ADS-B
Thu 02:39:53 PM 37.9206 -121.7710 76° East 408 470 16,300 2,066 Climbing FlightAware ADS-B
Thu 02:40:23 PM 37.9348 -121.7010 76° East 412 474 17,300 2,066 Climbing FlightAware ADS-B
Thu 02:40:54 PM 37.9493 -121.6300 75° East 417 480 18,400 1,967 Climbing FlightAware ADS-B
Thu 02:41:24 PM 37.9640 -121.5580 75° East 424 488 19,300 1,742 Climbing FlightAware ADS-B
Thu 02:41:56 PM 37.9796 -121.4810 76° East 430 495 20,200 1,742 Climbing FlightAware ADS-B
Thu 02:42:26 PM 37.9944 -121.4070 76° East 435 501 21,100 1,800 Climbing FlightAware ADS-B
Thu 02:42:56 PM 38.0095 -121.3320 76° East 439 505 22,000 1,739 Climbing FlightAware ADS-B
Thu 02:43:35 PM 38.0290 -121.2340 76° East 444 511 23,100 1,648 Climbing FlightAware ADS-B
Thu 02:44:27 PM 38.0550 -121.1020 76° East 450 518 24,500 1,636 Climbing FlightAware ADS-B
Thu 02:45:03 PM 38.0730 -121.0110 76° East 451 519 25,500 1,479 Climbing FlightAware ADS-B
Thu 02:45:40 PM 38.0910 -120.9160 76° East 457 526 26,300 1,250 Climbing FlightAware ADS-B
Thu 02:46:15 PM 38.1080 -120.8230 77° East 464 534 27,000 1,164 Climbing FlightAware ADS-B
Thu 02:46:47 PM 38.1230 -120.7380 77° East 470 541 27,600 1,636 Climbing FlightAware ADS-B
Thu 02:47:21 PM 38.1400 -120.6460 77° East 459 528 28,800 1,886 Climbing FlightAware ADS-B
Thu 02:47:57 PM 38.1560 -120.5520 78° East 457 526 29,800 1,333 Climbing FlightAware ADS-B
Thu 02:48:33 PM 38.1740 -120.4560 77° East 462 532 30,400 1,000 Climbing FlightAware ADS-B
Thu 02:49:09 PM 38.1910 -120.3600 77° East 467 537 31,000 1,250 Climbing FlightAware ADS-B
Thu 02:49:45 PM 38.2080 -120.2660 77° East 463 533 31,900 1,412 Climbing FlightAware ADS-B
Thu 02:50:17 PM 38.2220 -120.1830 78° East 460 529 32,600 1,350 Climbing FlightAware ADS-B
Thu 02:50:25 PM 38.2172 -120.2113 258° West 460 529 32,800 1,268 Climbing FlightAware ADS-B
Thu 02:51:28 PM 38.2550 -119.9970 77° East 455 524 34,100 1,200 Climbing FlightAware ADS-B
Thu 02:52:05 PM 38.2720 -119.8980 78° East 454 522 34,800 806 Climbing FlightAware ADS-B
Thu 02:52:35 PM 38.2860 -119.8190 77° East 456 525 35,000 226 Climbing FlightAware ADS-B
Thu 02:52:58 PM 38.2961 -119.7589 78° East 459 528 35,000  Level FlightAware ADS-B
Thu 02:53:49 PM 38.3191 -119.6242 78° East 469 540 35,000  Level FlightAware ADS-B
Thu 02:54:19 PM 38.3323 -119.5469 78° East 469 540 35,000  Level FlightAware ADS-B
Thu 02:54:51 PM 38.3478 -119.4554 78° East 466 536 35,000  Level FlightAware ADS-B
Thu 02:55:29 PM 38.3640 -119.3593 78° East 468 539 35,000  Level FlightAware ADS-B
Thu 02:56:01 PM 38.3790 -119.2680 78° East 467 537 35,000  Level FlightAware ADS-B
Thu 02:56:14 PM 38.3852 -119.2328 77° East 465 535 35,000  Level FlightAware ADS-B
Thu 02:56:45 PM 38.3989 -119.1508 78° East 464 534 35,000  Level FlightAware ADS-B
Thu 02:57:31 PM 38.4192 -119.0279 78° East 465 535 35,000  Level FlightAware ADS-B
Thu 02:58:11 PM 38.4367 -118.9217 78° East 466 536 35,000  Level FlightAware ADS-B
Thu 02:59:11 PM 38.4610 -118.7730 78° East 466 536 35,000  Level FlightAware ADS-B
Thu 02:59:44 PM 38.4770 -118.6740 78° East 469 540 35,000  Level FlightAware ADS-B
Thu 03:00:22 PM 38.4940 -118.5720 78° East 469 540 35,000  Level FlightAware ADS-B
Thu 03:01:03 PM 38.5120 -118.4570 79° East 469 540 35,000  Level FlightAware ADS-B
Thu 03:01:40 PM 38.5280 -118.3570 78° East 468 539 35,000  Level FlightAware ADS-B
Thu 03:02:12 PM 38.5420 -118.2700 78° East 468 539 35,000  Level FlightAware ADS-B
Thu 03:02:48 PM 38.5570 -118.1760 78° East 469 540 35,000  Level FlightAware ADS-B
Thu 03:03:19 PM 38.5710 -118.0870 79° East 469 540 35,000  Level FlightAware ADS-B
Thu 03:04:06 PM 38.5900 -117.9700 78° East 470 541 35,000  Level FlightAware ADS-B
Thu 03:04:42 PM 38.6030 -117.8860 79° East 470 541 35,000  Level FlightAware ADS-B
Thu 03:05:19 PM 38.6180 -117.8010 77° East 470 541 35,000  Level FlightAware ADS-B
Thu 03:05:55 PM 38.6310 -117.7180 79° East 470 541 35,000  Level FlightAware ADS-B
Thu 03:06:30 PM 38.6450 -117.6370 77° East 470 541 35,000  Level FlightAware ADS-B
Thu 03:07:06 PM 38.6590 -117.5530 78° East 470 541 35,000  Level FlightAware ADS-B
Thu 03:07:42 PM 38.6720 -117.4700 79° East 470 541 35,000  Level FlightAware ADS-B
Thu 03:08:19 PM 38.6870 -117.3840 77° East 470 541 35,000  Level FlightAware ADS-B
Thu 03:08:54 PM 38.7000 -117.3030 78° East 470 541 35,000  Level FlightAware ADS-B
Thu 03:09:30 PM 38.7140 -117.2200 78° East 470 541 35,000  Level FlightAware ADS-B
Thu 03:10:07 PM 38.7280 -117.1340 78° East 470 541 35,000  Level FlightAware ADS-B
Thu 03:10:43 PM 38.7420 -117.0500 78° East 470 541 35,000  Level FlightAware ADS-B
Thu 03:11:30 PM 38.7600 -116.9410 78° East 470 541 35,000  Level FlightAware ADS-B
Thu 03:12:07 PM 38.7740 -116.8560 78° East 470 541 35,000  Level FlightAware ADS-B
Thu 03:12:43 PM 38.7880 -116.7720 78° East 470 541 35,000  Level FlightAware ADS-B
Thu 03:13:19 PM 38.8020 -116.6890 78° East 470 541 35,000  Level FlightAware ADS-B
Thu 03:14:06 PM 38.8264 -116.3614 78° East 468 539 35,000  Level Oakland Center
Thu 03:15:08 PM 38.8486 -116.1972 80° East 468 539 35,000  Level Oakland Center
Thu 03:15:41 PM 38.8622 -116.0981 80° East 469 540 35,000  Level Salt Lake Center
Thu 03:16:43 PM 38.8844 -115.9350 80° East 465 535 35,000  Level Salt Lake Center
Thu 03:17:45 PM 38.9075 -115.7700 80° East 469 540 35,000  Level Salt Lake Center
Thu 03:18:47 PM 38.9297 -115.6042 80° East 470 541 35,000  Level Salt Lake Center
Thu 03:19:49 PM 38.9561 -115.4061 80° East 470 541 35,000  Level Salt Lake Center
Thu 03:20:51 PM 38.9778 -115.2583 79° East 474 545 35,000  Level Salt Lake Center
Thu 03:21:53 PM 38.9983 -115.0939 81° East 470 541 35,000  Level Salt Lake Center
Thu 03:22:55 PM 39.0233 -114.8958 81° East 467 537 35,000  Level Salt Lake Center
Thu 03:28:51 PM 39.1450 -113.9100 81° East 470 541 35,000  Level FlightAware ADS-B
Thu 03:29:27 PM 39.1570 -113.8080 81° East 471 542 35,000  Level FlightAware ADS-B
Thu 03:29:59 PM 39.1670 -113.7190 82° East 472 543 35,000  Level FlightAware ADS-B
Thu 03:30:29 PM 39.1767 -113.6366 81° East 472 543 35,000  Level FlightAware ADS-B
Thu 03:31:00 PM 39.1867 -113.5492 82° East 472 543 35,000  Level FlightAware ADS-B
Thu 03:31:31 PM 39.1964 -113.4651 82° East 473 544 35,000  Level FlightAware ADS-B
Thu 03:32:19 PM 39.2110 -113.3340 82° East 472 543 35,000  Level FlightAware ADS-B
Thu 03:32:33 PM 39.2160 -113.2930 81° East 475 547 35,000 1,029 Level FlightAware ADS-B
Thu 03:33:29 PM 39.2330 -113.1400 82° East 458 527 36,200 1,125 Climbing FlightAware ADS-B
Thu 03:34:09 PM 39.2450 -113.0340 82° East 457 526 36,800 600 Climbing FlightAware ADS-B
Thu 03:34:49 PM 39.2574 -112.9219 82° East 463 533 37,000 146 Climbing FlightAware ADS-B
Thu 03:35:31 PM 39.2701 -112.8050 82° East 469 540 37,000  Level FlightAware ADS-B
Thu 03:36:02 PM 39.2794 -112.7190 82° East 472 543 37,000  Level FlightAware ADS-B
Thu 03:36:33 PM 39.2887 -112.6330 82° East 473 544 37,000  Level FlightAware ADS-B
Thu 03:36:40 PM 39.2905 -112.6162 82° East 474 545 37,000  Level FlightAware ADS-B
Thu 03:36:57 PM 39.2960 -112.5660 82° East 474 545 37,000  Level FlightAware ADS-B
Thu 03:37:12 PM 39.3026 -112.5250 78° East 471 542 37,000  Level FlightAware ADS-B
Thu 03:37:26 PM 39.3117 -112.4860 73° East 468 539 37,000  Level FlightAware ADS-B
Thu 03:37:43 PM 39.3254 -112.4430 68° East 464 534 37,000  Level FlightAware ADS-B
Thu 03:37:45 PM 39.3265 -112.4399 65° Northeast 464 534 37,000  Level FlightAware ADS-B
Thu 03:38:13 PM 39.3528 -112.3680 65° Northeast 464 534 37,000  Level FlightAware ADS-B
Thu 03:38:15 PM 39.3543 -112.3639 65° Northeast 464 534 37,000  Level FlightAware ADS-B
Thu 03:38:46 PM 39.3818 -112.2891 64° Northeast 464 534 37,000  Level FlightAware ADS-B
Thu 03:38:47 PM 39.3836 -112.2840 66° East 464 534 37,000  Level FlightAware ADS-B
Thu 03:39:18 PM 39.4128 -112.2050 64° Northeast 464 534 37,000  Level FlightAware ADS-B
Thu 03:39:38 PM 39.4308 -112.1563 64° Northeast 463 533 37,000  Level FlightAware ADS-B
Thu 03:39:49 PM 39.4408 -112.1290 65° Northeast 463 533 37,000  Level FlightAware ADS-B
Thu 03:40:22 PM 39.4706 -112.0480 64° Northeast 462 532 37,000  Level FlightAware ADS-B
Thu 03:40:50 PM 39.4964 -111.9770 65° Northeast 463 533 37,000  Level FlightAware ADS-B
Thu 03:41:01 PM 39.5061 -111.9510 64° Northeast 463 533 37,000  Level FlightAware ADS-B
Thu 03:41:31 PM 39.5337 -111.8740 65° Northeast 467 537 37,000  Level FlightAware ADS-B
Thu 03:42:01 PM 39.5612 -111.7980 65° Northeast 468 539 37,000  Level FlightAware ADS-B
Thu 03:42:20 PM 39.5789 -111.7495 65° Northeast 468 539 37,000  Level FlightAware ADS-B
Thu 03:42:35 PM 39.5921 -111.7130 65° Northeast 466 536 37,000  Level FlightAware ADS-B
Thu 03:43:05 PM 39.6192 -111.6376 65° Northeast 462 532 37,000  Level FlightAware ADS-B
Thu 03:43:11 PM 39.6252 -111.6210 65° Northeast 461 531 37,000  Level FlightAware ADS-B
Thu 03:43:42 PM 39.6525 -111.5450 65° Northeast 462 532 37,000  Level FlightAware ADS-B
Thu 03:44:05 PM 39.6650 -111.5104 65° Northeast 462 532 37,000  Level FlightAware ADS-B
Thu 03:44:20 PM 39.6870 -111.4490 65° Northeast 462 532 37,000  Level FlightAware ADS-B
Thu 03:44:51 PM 39.7144 -111.3720 65° Northeast 464 534 37,000  Level FlightAware ADS-B
Thu 03:45:23 PM 39.7436 -111.2900 65° Northeast 467 537 37,000  Level FlightAware ADS-B
Thu 03:45:26 PM 39.7455 -111.2846 65° Northeast 467 537 37,000  Level FlightAware ADS-B
Thu 03:45:54 PM 39.7713 -111.2120 65° Northeast 468 539 37,000  Level FlightAware ADS-B
Thu 03:46:03 PM 39.7794 -111.1892 65° Northeast 467 537 37,000  Level FlightAware ADS-B
Thu 03:46:24 PM 39.7989 -111.1340 65° Northeast 465 535 37,000  Level FlightAware ADS-B
Thu 03:46:38 PM 39.8113 -111.0989 65° Northeast 464 534 37,000  Level FlightAware ADS-B
Thu 03:46:54 PM 39.8258 -111.0580 65° Northeast 463 533 37,000  Level FlightAware ADS-B
Thu 03:47:11 PM 39.8397 -111.0186 65° Northeast 463 533 37,000  Level FlightAware ADS-B
Thu 03:47:25 PM 39.8527 -110.9820 65° Northeast 463 533 37,000  Level FlightAware ADS-B
Thu 03:47:41 PM 39.8631 -110.9521 66° East 463 533 37,000  Level FlightAware ADS-B
Thu 03:47:55 PM 39.8794 -110.9060 65° Northeast 464 534 37,000  Level FlightAware ADS-B
Thu 03:48:11 PM 39.8936 -110.8652 66° East 465 535 37,000  Level FlightAware ADS-B
Thu 03:48:44 PM 39.9200 -110.7899 65° Northeast 465 535 37,000  Level FlightAware ADS-B
Thu 03:48:49 PM 39.9273 -110.7690 65° Northeast 465 535 37,000  Level FlightAware ADS-B
Thu 03:49:24 PM 39.9577 -110.6817 66° East 469 540 37,000  Level FlightAware ADS-B
Thu 03:49:57 PM 39.9875 -110.5961 66° East 466 536 37,000  Level FlightAware ADS-B
Thu 03:50:32 PM 40.0156 -110.5149 66° East 466 536 37,000  Level FlightAware ADS-B (KGUC)
Thu 03:51:07 PM 40.0497 -110.4162 66° East 462 532 37,000  Level FlightAware ADS-B
Thu 03:51:37 PM 40.0755 -110.3414 66° East 465 535 37,000  Level FlightAware ADS-B
Thu 03:52:09 PM 40.1037 -110.2598 66° East 470 541 37,000  Level FlightAware ADS-B
Thu 03:52:39 PM 40.1314 -110.1783 66° East 470 541 37,000  Level FlightAware ADS-B
Thu 03:53:12 PM 40.1568 -110.0907 69° East 480 552 37,000  Level FlightAware ADS-B
Thu 03:53:42 PM 40.1763 -110.0073 73° East 481 554 37,000  Level FlightAware ADS-B
Thu 03:54:15 PM 40.1965 -109.9165 74° East 479 551 37,000  Level FlightAware ADS-B (KGUC)
Thu 03:54:45 PM 40.2144 -109.8349 74° East 477 549 37,000  Level FlightAware ADS-B
Thu 03:55:18 PM 40.2351 -109.7412 74° East 477 549 37,000  Level FlightAware ADS-B
Thu 03:55:48 PM 40.2533 -109.6583 74° East 478 550 37,000  Level FlightAware ADS-B
Thu 03:56:19 PM 40.2701 -109.5818 74° East 478 550 37,000  Level FlightAware ADS-B
Thu 03:56:49 PM 40.2899 -109.4917 74° East 481 554 37,000  Level FlightAware ADS-B
Thu 03:57:19 PM 40.3067 -109.4146 74° East 482 555 37,000  Level FlightAware ADS-B
Thu 03:57:51 PM 40.3276 -109.3185 74° East 483 556 37,000  Level FlightAware ADS-B
Thu 03:58:21 PM 40.3463 -109.2321 74° East 482 555 37,000  Level FlightAware ADS-B
Thu 03:58:51 PM 40.3642 -109.1488 74° East 480 552 37,000  Level FlightAware ADS-B
Thu 03:59:31 PM 40.3884 -109.0364 74° East 479 551 37,000  Level FlightAware ADS-B
Thu 04:00:01 PM 40.4062 -108.9532 74° East 480 552 37,000  Level FlightAware ADS-B
Thu 04:00:11 PM 40.4124 -108.9240 74° East 479 551 37,000  Level FlightAware ADS-B (KGUC)
Thu 04:00:41 PM 40.4296 -108.8427 74° East 479 551 37,000  Level FlightAware ADS-B
Thu 04:01:11 PM 40.4469 -108.7613 74° East 482 555 37,000  Level FlightAware ADS-B
Thu 04:01:41 PM 40.4656 -108.6723 74° East 484 557 37,000  Level FlightAware ADS-B
Thu 04:02:11 PM 40.4829 -108.5899 75° East 481 554 37,000  Level FlightAware ADS-B
Thu 04:02:41 PM 40.5008 -108.5043 75° East 481 554 37,000  Level FlightAware ADS-B
Thu 04:03:11 PM 40.5157 -108.4333 75° East 486 559 37,000  Level FlightAware ADS-B
Thu 04:03:50 PM 40.5413 -108.3094 75° East 490 564 37,000  Level FlightAware ADS-B
Thu 04:04:20 PM 40.5596 -108.2205 75° East 489 563 37,000  Level FlightAware ADS-B
Thu 04:04:51 PM 40.5771 -108.1353 75° East 488 562 37,000  Level FlightAware ADS-B
Thu 04:05:21 PM 40.5950 -108.0482 75° East 489 563 37,000  Level FlightAware ADS-B
Thu 04:05:51 PM 40.6124 -107.9623 75° East 491 565 37,000  Level FlightAware ADS-B
Thu 04:06:21 PM 40.6296 -107.8775 75° East 491 565 37,000  Level FlightAware ADS-B
Thu 04:07:00 PM 40.6524 -107.7646 75° East 490 564 37,000  Level FlightAware ADS-B
Thu 04:07:30 PM 40.6700 -107.6769 75° East 493 567 37,000  Level FlightAware ADS-B
Thu 04:08:00 PM 40.6870 -107.5923 75° East 493 567 37,000  Level FlightAware ADS-B
Thu 04:08:31 PM 40.7050 -107.5017 75° East 492 566 37,000  Level FlightAware ADS-B
Thu 04:09:10 PM 40.7264 -107.3940 75° East 492 566 37,000  Level FlightAware ADS-B
Thu 04:09:58 PM 40.7550 -107.2480 75° East 491 565 37,000  Level FlightAware ADS-B
Thu 04:10:34 PM 40.7750 -107.1440 76° East 493 567 37,000  Level FlightAware ADS-B
Thu 04:11:24 PM 40.7980 -107.0300 75° East 492 566 37,000  Level FlightAware ADS-B
Thu 04:12:02 PM 40.8250 -106.8900 76° East 494 568 37,000  Level FlightAware ADS-B
Thu 04:12:35 PM 40.8430 -106.7930 76° East 499 574 37,000  Level FlightAware ADS-B
Thu 04:12:57 PM 40.8561 -106.7269 75° East 499 574 37,000  Level FlightAware ADS-B (KEIK)
Thu 04:13:32 PM 40.8755 -106.6243 76° East 494 568 37,000  Level FlightAware ADS-B (KEIK)
Thu 04:14:22 PM 40.9030 -106.4800 76° East 494 568 37,000  Level FlightAware ADS-B
Thu 04:14:58 PM 40.9230 -106.3720 76° East 493 567 37,000  Level FlightAware ADS-B
Thu 04:15:34 PM 40.9430 -106.2680 76° East 496 571 37,000  Level FlightAware ADS-B
Thu 04:15:50 PM 40.9510 -106.2239 77° East 497 572 37,000  Level FlightAware ADS-B (KEIK)
Thu 04:16:42 PM 40.9800 -106.0680 76° East 497 572 37,000  Level FlightAware ADS-B
Thu 04:17:18 PM 41.0000 -105.9590 76° East 496 571 37,000  Level FlightAware ADS-B
Thu 04:17:54 PM 41.0190 -105.8550 76° East 496 571 37,000  Level FlightAware ADS-B
Thu 04:18:26 PM 41.0360 -105.7600 77° East 495 570 37,000  Level FlightAware ADS-B
Thu 04:19:04 PM 41.0570 -105.6480 76° East 493 567 37,000  Level FlightAware ADS-B
Thu 04:19:38 PM 41.0740 -105.5490 77° East 498 573 37,000  Level FlightAware ADS-B
Thu 04:20:12 PM 41.0910 -105.4590 76° East 501 577 37,000  Level FlightAware ADS-B
Thu 04:20:21 PM 41.0976 -105.4195 77° East 502 578 37,000  Level FlightAware ADS-B (KEIK)
Thu 04:21:04 PM 41.1165 -105.3132 77° East 501 577 37,000  Level FlightAware ADS-B (KEIK)
Thu 04:21:44 PM 41.1411 -105.1740 77° East 501 577 37,000  Level FlightAware ADS-B (KEIK)
Thu 04:22:23 PM 41.1602 -105.0657 77° East 504 580 37,000  Level FlightAware ADS-B (KEIK)
Thu 04:23:01 PM 41.1817 -104.9422 77° East 503 579 37,000  Level FlightAware ADS-B (KEIK)
Thu 04:23:39 PM 41.2016 -104.8277 77° East 506 582 37,000  Level FlightAware ADS-B (KEIK)
Thu 04:24:16 PM 41.2234 -104.7219 75° East 507 583 37,000  Level FlightAware ADS-B (KEIK)
Thu 04:24:53 PM 41.2490 -104.6090 73° East 507 583 37,000  Level FlightAware ADS-B
Thu 04:25:28 PM 41.2750 -104.5030 72° East 508 585 37,000  Level FlightAware ADS-B
Thu 04:26:04 PM 41.3000 -104.3960 73° East 506 582 37,000  Level FlightAware ADS-B
Thu 04:26:36 PM 41.3220 -104.3020 73° East 503 579 37,000  Level FlightAware ADS-B
Thu 04:27:13 PM 41.3460 -104.1970 73° East 504 580 37,000  Level FlightAware ADS-B
Thu 04:27:49 PM 41.3720 -104.0840 73° East 508 585 37,000  Level FlightAware ADS-B
Thu 04:28:22 PM 41.3950 -103.9880 72° East 511 588 37,000  Level FlightAware ADS-B
Thu 04:28:57 PM 41.4190 -103.8820 73° East 508 585 37,000  Level FlightAware ADS-B
Thu 04:29:31 PM 41.4430 -103.7780 73° East 507 583 37,000  Level FlightAware ADS-B
Thu 04:30:09 PM 41.4680 -103.6680 73° East 505 581 37,000  Level FlightAware ADS-B
Thu 04:30:39 PM 41.4880 -103.5750 74° East 506 582 37,000  Level FlightAware ADS-B
Thu 04:31:18 PM 41.5140 -103.4620 73° East 509 586 37,000  Level FlightAware ADS-B
Thu 04:31:53 PM 41.5380 -103.3540 73° East 509 586 37,000  Level FlightAware ADS-B
Thu 04:32:28 PM 41.5610 -103.2520 73° East 507 583 37,000  Level FlightAware ADS-B
Thu 04:33:01 PM 41.5820 -103.1560 74° East 507 583 37,000  Level FlightAware ADS-B
Thu 04:33:37 PM 41.6060 -103.0460 74° East 507 583 37,000  Level FlightAware ADS-B
Thu 04:34:17 PM 41.6310 -102.9360 73° East 508 585 37,000  Level FlightAware ADS-B
Thu 04:34:53 PM 41.6520 -102.8440 73° East 508 585 37,000  Level FlightAware ADS-B
Thu 04:35:29 PM 41.6810 -102.7060 74° East 505 581 37,000  Level FlightAware ADS-B
Thu 04:36:05 PM 41.7040 -102.6000 74° East 505 581 37,000  Level FlightAware ADS-B
Thu 04:36:39 PM 41.7260 -102.4970 74° East 509 586 37,000  Level FlightAware ADS-B
Thu 04:37:15 PM 41.7460 -102.4030 74° East 510 587 37,000  Level FlightAware ADS-B
Thu 04:37:48 PM 41.7700 -102.2900 74° East 508 585 37,000  Level FlightAware ADS-B
Thu 04:38:27 PM 41.7910 -102.1890 74° East 508 585 37,000  Level FlightAware ADS-B
Thu 04:39:03 PM 41.8110 -102.0960 74° East 508 585 37,000  Level FlightAware ADS-B
Thu 04:39:39 PM 41.8310 -102.0040 74° East 508 585 37,000  Level FlightAware ADS-B
Thu 04:40:15 PM 41.8510 -101.9110 74° East 508 585 37,000  Level FlightAware ADS-B
Thu 04:40:51 PM 41.8710 -101.8180 74° East 508 585 37,000  Level FlightAware ADS-B
Thu 04:41:27 PM 41.8910 -101.7250 74° East 508 585 37,000  Level FlightAware ADS-B
Thu 04:42:03 PM 41.9100 -101.6320 75° East 508 585 37,000  Level FlightAware ADS-B
Thu 04:42:39 PM 41.9300 -101.5390 74° East 508 585 37,000  Level FlightAware ADS-B
Thu 04:43:18 PM 41.9520 -101.4390 73° East 508 585 37,000  Level FlightAware ADS-B
Thu 04:43:55 PM 41.9720 -101.3430 74° East 508 585 37,000  Level FlightAware ADS-B
Thu 04:44:31 PM 41.9920 -101.2500 74° East 508 585 37,000  Level FlightAware ADS-B
Thu 04:45:08 PM 42.0120 -101.1550 74° East 508 585 37,000  Level FlightAware ADS-B
Thu 04:45:45 PM 42.0330 -101.0590 74° East 508 585 37,000  Level FlightAware ADS-B
Thu 04:46:19 PM 42.0510 -100.9710 75° East 508 585 37,000  Level FlightAware ADS-B
Thu 04:46:56 PM 42.0720 -100.8750 74° East 508 585 37,000  Level FlightAware ADS-B
Thu 04:47:32 PM 42.0910 -100.7820 75° East 508 585 37,000  Level FlightAware ADS-B
Thu 04:52:49 PM 42.3171 -99.5351 76° East 515 593 37,000  Level FlightAware ADS-B
Thu 04:53:41 PM 42.3470 -99.3710 76° East 517 595 37,000  Level FlightAware ADS-B
Thu 04:54:14 PM 42.3660 -99.2670 76° East 514 592 37,000  Level FlightAware ADS-B
Thu 04:54:29 PM 42.3730 -99.2304 75° East 514 592 37,000  Level FlightAware ADS-B
Thu 04:55:28 PM 42.4080 -99.0370 76° East 514 592 37,000  Level FlightAware ADS-B
Thu 04:56:03 PM 42.4277 -98.9269 76° East 516 594 37,000  Level FlightAware ADS-B
Thu 04:56:34 PM 42.4452 -98.8295 76° East 516 594 37,000  Level FlightAware ADS-B
Thu 04:57:25 PM 42.4710 -98.6810 77° East 515 593 37,000  Level FlightAware ADS-B
Thu 04:57:42 PM 42.4738 -98.6171 87° East 516 594 37,000  Level FlightAware ADS-B
Thu 04:58:34 PM 42.4830 -98.4480 86° East 515 593 37,000  Level FlightAware ADS-B
Thu 04:59:10 PM 42.4890 -98.3300 86° East 516 594 37,000  Level FlightAware ADS-B
Thu 04:59:46 PM 42.4940 -98.2160 87° East 516 594 37,000  Level FlightAware ADS-B
Thu 05:00:29 PM 42.5000 -98.0770 87° East 515 593 37,000  Level FlightAware ADS-B
Thu 05:01:03 PM 42.5050 -97.9670 86° East 517 595 37,000  Level FlightAware ADS-B
Thu 05:01:36 PM 42.5100 -97.8620 86° East 515 593 37,000  Level FlightAware ADS-B
Thu 05:02:13 PM 42.5150 -97.7440 87° East 513 590 37,000  Level FlightAware ADS-B
Thu 05:02:47 PM 42.5200 -97.6340 86° East 511 588 37,000  Level FlightAware ADS-B
Thu 05:03:22 PM 42.5240 -97.5210 87° East 512 589 37,000  Level FlightAware ADS-B
Thu 05:03:57 PM 42.5290 -97.4120 86° East 513 590 37,000  Level FlightAware ADS-B
Thu 05:04:32 PM 42.5330 -97.2980 87° East 513 590 37,000  Level FlightAware ADS-B
Thu 05:05:08 PM 42.5380 -97.1840 87° East 511 588 37,000  Level FlightAware ADS-B
Thu 05:05:44 PM 42.5420 -97.0670 87° East 509 586 37,000  Level FlightAware ADS-B
Thu 05:06:17 PM 42.5460 -96.9640 87° East 507 583 37,000  Level FlightAware ADS-B
Thu 05:06:52 PM 42.5500 -96.8550 87° East 509 586 37,000  Level FlightAware ADS-B
Thu 05:07:10 PM 42.5517 -96.7981 88° East 512 589 37,000  Level FlightAware ADS-B
Thu 05:08:02 PM 42.5570 -96.6270 88° East 512 589 37,000  Level FlightAware ADS-B
Thu 05:08:38 PM 42.5610 -96.5140 87° East 512 589 37,000  Level FlightAware ADS-B
Thu 05:09:14 PM 42.5650 -96.3960 87° East 511 588 37,000  Level FlightAware ADS-B
Thu 05:09:47 PM 42.5680 -96.2930 88° East 512 589 37,000  Level FlightAware ADS-B
Thu 05:10:25 PM 42.5720 -96.1750 87° East 512 589 37,000  Level FlightAware ADS-B
Thu 05:10:57 PM 42.5750 -96.0700 88° East 513 590 37,000  Level FlightAware ADS-B
Thu 05:11:32 PM 42.5780 -95.9540 88° East 514 592 37,000  Level FlightAware ADS-B
Thu 05:12:04 PM 42.5810 -95.8520 88° East 517 595 37,000  Level FlightAware ADS-B
Thu 05:12:43 PM 42.5840 -95.7260 88° East 520 598 37,000  Level FlightAware ADS-B
Thu 05:13:20 PM 42.5870 -95.6030 88° East 522 601 37,000  Level FlightAware ADS-B
Thu 05:13:51 PM 42.5890 -95.5100 88° East 522 601 37,000  Level FlightAware ADS-B
Thu 05:14:28 PM 42.5920 -95.3830 88° East 524 603 37,000  Level FlightAware ADS-B
Thu 05:15:03 PM 42.5950 -95.2680 88° East 524 603 37,000  Level FlightAware ADS-B
Thu 05:15:39 PM 42.5970 -95.1510 89° East 523 602 37,000  Level FlightAware ADS-B
Thu 05:16:12 PM 42.5990 -95.0430 89° East 521 600 37,000  Level FlightAware ADS-B
Thu 05:16:49 PM 42.6010 -94.9230 89° East 521 600 37,000  Level FlightAware ADS-B
Thu 05:17:23 PM 42.6030 -94.8090 89° East 520 598 37,000  Level FlightAware ADS-B
Thu 05:17:56 PM 42.6050 -94.7020 89° East 521 600 37,000  Level FlightAware ADS-B
Thu 05:17:59 PM 42.6054 -94.6912 87° East 522 601 37,000  Level FlightAware ADS-B (LPVM)
Thu 05:18:33 PM 42.6070 -94.5830 89° East 524 603 37,000  Level FlightAware ADS-B
Thu 05:18:46 PM 42.6077 -94.5377 89° East 523 602 37,000  Level FlightAware ADS-B (LPVM)
Thu 05:19:42 PM 42.6100 -94.3580 89° East 516 594 37,000  Level FlightAware ADS-B
Thu 05:20:15 PM 42.6117 -94.2475 89° East 518 596 37,000  Level FlightAware ADS-B (LPVM)
Thu 05:20:49 PM 42.6126 -94.1396 89° East 521 600 37,000  Level FlightAware ADS-B (LPVM)
Thu 05:21:30 PM 42.6140 -94.0070 89° East 520 598 37,000  Level FlightAware ADS-B
Thu 05:22:00 PM 42.6140 -93.9100 90° East 515 593 37,000  Level FlightAware ADS-B
Thu 05:22:38 PM 42.6150 -93.7880 89° East 516 594 37,000  Level FlightAware ADS-B
Thu 05:23:13 PM 42.6160 -93.6760 89° East 517 595 37,000  Level FlightAware ADS-B
Thu 05:23:47 PM 42.6160 -93.5660 90° East 513 590 37,000  Level FlightAware ADS-B
Thu 05:24:19 PM 42.6160 -93.4610 90° East 512 589 37,000  Level FlightAware ADS-B
Thu 05:24:59 PM 42.6170 -93.3370 89° East 515 593 37,000  Level FlightAware ADS-B
Thu 05:25:47 PM 42.6170 -93.1860 90° East 517 595 37,000  Level FlightAware ADS-B
Thu 05:26:18 PM 42.6170 -93.0850 90° East 518 596 37,000  Level FlightAware ADS-B
Thu 05:26:57 PM 42.6160 -92.9560 91° East 519 597 37,000  Level FlightAware ADS-B
Thu 05:27:33 PM 42.6160 -92.8360 90° East 515 593 37,000  Level FlightAware ADS-B
Thu 05:28:03 PM 42.6160 -92.7410 90° East 518 596 37,000  Level FlightAware ADS-B
Thu 05:28:43 PM 42.6150 -92.6150 91° East 522 601 37,000  Level FlightAware ADS-B
Thu 05:29:02 PM 42.6150 -92.5428 90° East 522 601 37,000  Level FlightAware ADS-B (LPVM)
Thu 05:29:37 PM 42.6143 -92.4284 90° East 522 601 37,000  Level FlightAware ADS-B (LPVM)
Thu 05:30:28 PM 42.6130 -92.2650 91° East 520 598 37,000  Level FlightAware ADS-B
Thu 05:30:57 PM 42.6123 -92.1687 91° East 521 600 37,000  Level FlightAware ADS-B (LPVM)
Thu 05:31:34 PM 42.6114 -92.0734 91° East 522 601 37,000  Level FlightAware ADS-B (LPVM)
Thu 05:32:07 PM 42.6100 -91.9400 91° East 523 602 37,000  Level FlightAware ADS-B
Thu 05:32:21 PM 42.6097 -91.9034 91° East 523 602 37,000  Level FlightAware ADS-B (LPVM)
Thu 05:32:51 PM 42.6086 -91.8073 91° East 522 601 37,000  Level FlightAware ADS-B (LPVM)
Thu 05:33:21 PM 42.6070 -91.7020 91° East 521 600 37,000  Level FlightAware ADS-B
Thu 05:34:01 PM 42.6055 -91.5680 91° East 520 598 37,000  Level FlightAware ADS-B (LPVM)
Thu 05:34:33 PM 42.6040 -91.4670 91° East 522 601 37,000  Level FlightAware ADS-B
Thu 05:34:44 PM 42.6035 -91.4287 91° East 522 601 37,000  Level FlightAware ADS-B (LPVM)
Thu 05:35:29 PM 42.6014 -91.2933 91° East 513 590 37,000  Level FlightAware ADS-B (LPVM)
Thu 05:36:02 PM 42.5998 -91.1943 91° East 512 589 37,000  Level FlightAware ADS-B (LPVM)
Thu 05:36:44 PM 42.5971 -91.0445 91° East 512 589 37,000  Level FlightAware ADS-B (LPVM)
Thu 05:37:22 PM 42.5950 -90.9345 91° East 511 588 37,000  Level FlightAware ADS-B (LPVM)
Thu 05:37:57 PM 42.5924 -90.8069 92° East 509 586 37,000  Level FlightAware ADS-B (LPVM)
Thu 05:38:29 PM 42.5902 -90.7066 92° East 505 581 37,000  Level FlightAware ADS-B (LPVM)
Thu 05:39:13 PM 42.5870 -90.5730 92° East 503 579 37,000  Level FlightAware ADS-B
Thu 05:39:49 PM 42.5850 -90.4560 91° East 503 579 37,000  Level FlightAware ADS-B
Thu 05:40:21 PM 42.5820 -90.3550 92° East 502 578 37,000  Level FlightAware ADS-B
Thu 05:40:56 PM 42.5790 -90.2470 92° East 504 580 37,000  Level FlightAware ADS-B
Thu 05:41:34 PM 42.5760 -90.1280 92° East 506 582 37,000  Level FlightAware ADS-B
Thu 05:42:06 PM 42.5740 -90.0230 91° East 511 588 37,000  Level FlightAware ADS-B
Thu 05:42:41 PM 42.5700 -89.9120 93° East 520 598 37,000  Level FlightAware ADS-B
Thu 05:43:17 PM 42.5670 -89.7930 92° East 526 605 37,000  Level FlightAware ADS-B
Thu 05:43:54 PM 42.5630 -89.6710 93° East 525 604 37,000  Level FlightAware ADS-B
Thu 05:44:25 PM 42.5600 -89.5700 92° East 525 604 37,000  Level FlightAware ADS-B
Thu 05:45:02 PM 42.5560 -89.4500 93° East 527 606 37,000  Level FlightAware ADS-B
Thu 05:45:38 PM 42.5520 -89.3300 93° East 525 604 37,000  Level FlightAware ADS-B
Thu 05:46:11 PM 42.5490 -89.2220 92° East 527 606 37,000  Level FlightAware ADS-B
Thu 05:46:47 PM 42.5440 -89.1020 93° East 527 606 37,000  Level FlightAware ADS-B
Thu 05:47:23 PM 42.5400 -88.9860 93° East 526 605 37,000  Level FlightAware ADS-B
Thu 05:47:59 PM 42.5360 -88.8650 93° East 523 602 37,000  Level FlightAware ADS-B
Thu 05:48:30 PM 42.5320 -88.7680 93° East 520 598 37,000  Level FlightAware ADS-B
Thu 05:49:06 PM 42.5280 -88.6500 93° East 524 603 37,000  Level FlightAware ADS-B
Thu 05:49:43 PM 42.5230 -88.5260 93° East 528 608 37,000  Level FlightAware ADS-B
Thu 05:50:18 PM 42.5180 -88.4110 93° East 529 609 37,000  Level FlightAware ADS-B
Thu 05:50:55 PM 42.5130 -88.2920 93° East 526 605 37,000  Level FlightAware ADS-B
Thu 05:51:26 PM 42.5090 -88.1910 93° East 522 601 37,000  Level FlightAware ADS-B
Thu 05:52:03 PM 42.5030 -88.0680 94° East 523 602 37,000  Level FlightAware ADS-B
Thu 05:52:38 PM 42.5000 -87.9570 92° East 527 606 37,000  Level FlightAware ADS-B
Thu 05:53:12 PM 42.5000 -87.8420 90° East 531 611 37,000  Level FlightAware ADS-B
Thu 05:53:49 PM 42.5000 -87.7200 90° East 534 615 37,000  Level FlightAware ADS-B
Thu 05:54:26 PM 42.4990 -87.5980 91° East 533 613 37,000  Level FlightAware ADS-B
Thu 05:54:59 PM 42.4990 -87.4880 90° East 533 613 37,000  Level FlightAware ADS-B
Thu 05:55:36 PM 42.4990 -87.3680 90° East 531 611 37,000  Level FlightAware ADS-B
Thu 05:56:07 PM 42.4980 -87.2590 91° East 529 609 37,000  Level FlightAware ADS-B
Thu 05:56:41 PM 42.4970 -87.1460 91° East 528 608 37,000  Level FlightAware ADS-B
Thu 05:57:19 PM 42.4960 -87.0240 91° East 526 605 37,000  Level FlightAware ADS-B
Thu 05:57:52 PM 42.4950 -86.9170 91° East 524 603 37,000  Level FlightAware ADS-B
Thu 05:58:27 PM 42.4940 -86.8040 91° East 523 602 37,000  Level FlightAware ADS-B
Thu 05:59:03 PM 42.4930 -86.6880 91° East 522 601 37,000  Level FlightAware ADS-B
Thu 05:59:37 PM 42.4910 -86.5710 91° East 522 601 37,000  Level FlightAware ADS-B
Thu 06:00:12 PM 42.4900 -86.4560 91° East 522 601 37,000  Level FlightAware ADS-B
Thu 06:00:48 PM 42.4880 -86.3370 91° East 524 603 37,000  Level FlightAware ADS-B
Thu 06:01:21 PM 42.4870 -86.2340 91° East 524 603 37,000  Level FlightAware ADS-B
Thu 06:01:57 PM 42.4850 -86.1110 91° East 522 601 37,000  Level FlightAware ADS-B
Thu 06:02:32 PM 42.4830 -85.9980 91° East 522 601 37,000  Level FlightAware ADS-B
Thu 06:03:10 PM 42.4810 -85.8760 91° East 524 603 37,000  Level FlightAware ADS-B
Thu 06:03:44 PM 42.4790 -85.7720 91° East 526 605 37,000  Level FlightAware ADS-B
Thu 06:04:19 PM 42.4770 -85.6520 91° East 529 609 37,000  Level FlightAware ADS-B
Thu 06:04:55 PM 42.4740 -85.5290 92° East 528 608 37,000  Level FlightAware ADS-B
Thu 06:05:28 PM 42.4720 -85.4230 91° East 528 608 37,000  Level FlightAware ADS-B
Thu 06:06:05 PM 42.4690 -85.3030 92° East 527 606 37,000  Level FlightAware ADS-B
Thu 06:06:37 PM 42.4670 -85.2010 91° East 527 606 37,000  Level FlightAware ADS-B
Thu 06:07:14 PM 42.4640 -85.0740 92° East 528 608 37,000  Level FlightAware ADS-B
Thu 06:07:51 PM 42.4600 -84.9520 93° East 528 608 37,000  Level FlightAware ADS-B
Thu 06:08:21 PM 42.4580 -84.8490 91° East 527 606 37,000  Level FlightAware ADS-B
Thu 06:09:00 PM 42.4540 -84.7300 93° East 528 608 37,000  Level FlightAware ADS-B
Thu 06:09:36 PM 42.4510 -84.6070 92° East 528 608 37,000  Level FlightAware ADS-B
Thu 06:10:05 PM 42.4480 -84.5080 92° East 529 609 37,000  Level FlightAware ADS-B
Thu 06:10:43 PM 42.4440 -84.3870 93° East 530 610 37,000  Level FlightAware ADS-B
Thu 06:11:01 PM 42.4420 -84.3260 93° East 530 610 37,000  Level FlightAware ADS-B
Thu 06:11:55 PM 42.4360 -84.1470 93° East 532 612 37,000  Level FlightAware ADS-B
Thu 06:12:27 PM 42.4330 -84.0390 92° East 534 615 37,000  Level FlightAware ADS-B
Thu 06:13:03 PM 42.4280 -83.9180 93° East 534 615 37,000  Level FlightAware ADS-B
Thu 06:13:39 PM 42.4240 -83.7970 93° East 533 613 37,000  Level FlightAware ADS-B
Thu 06:14:13 PM 42.4200 -83.6850 93° East 533 613 37,000  Level FlightAware ADS-B
Thu 06:14:51 PM 42.4150 -83.5580 93° East 534 615 37,000  Level FlightAware ADS-B
Thu 06:15:21 PM 42.4110 -83.4560 93° East 533 613 37,000  Level FlightAware ADS-B
Thu 06:15:59 PM 42.4060 -83.3330 93° East 529 609 37,000  Level FlightAware ADS-B
Thu 06:16:35 PM 42.4010 -83.2140 93° East 529 609 37,000  Level FlightAware ADS-B
Thu 06:17:09 PM 42.3970 -83.1010 93° East 530 610 37,000  Level FlightAware ADS-B
Thu 06:17:46 PM 42.3910 -82.9800 94° East 532 612 37,000  Level FlightAware ADS-B
Thu 06:18:17 PM 42.3870 -82.8790 93° East 533 613 37,000  Level FlightAware ADS-B
Thu 06:18:55 PM 42.3820 -82.7590 93° East 534 615 37,000  Level FlightAware ADS-B
Thu 06:19:27 PM 42.3770 -82.6540 94° East 531 611 37,000  Level FlightAware ADS-B
Thu 06:20:03 PM 42.3720 -82.5230 93° East 529 609 37,000  Level FlightAware ADS-B
Thu 06:20:39 PM 42.3680 -82.4080 93° East 526 605 37,000  Level FlightAware ADS-B
Thu 06:21:11 PM 42.3630 -82.3040 94° East 526 605 37,000  Level FlightAware ADS-B
Thu 06:21:45 PM 42.3590 -82.1930 93° East 523 602 37,000  Level FlightAware ADS-B
Thu 06:22:27 PM 42.3530 -82.0680 94° East 521 600 37,000  Level FlightAware ADS-B
Thu 06:23:05 PM 42.3480 -81.9350 93° East 524 603 37,000  Level FlightAware ADS-B
Thu 06:23:38 PM 42.3430 -81.8280 94° East 525 604 37,000  Level FlightAware ADS-B
Thu 06:24:16 PM 42.3370 -81.6960 93° East 521 600 37,000  Level FlightAware ADS-B
Thu 06:24:53 PM 42.3310 -81.5770 94° East 521 600 37,000  Level FlightAware ADS-B
Thu 06:25:22 PM 42.3270 -81.4840 93° East 521 600 37,000  Level FlightAware ADS-B
Thu 06:26:01 PM 42.3210 -81.3590 94° East 525 604 37,000  Level FlightAware ADS-B
Thu 06:26:37 PM 42.3150 -81.2390 94° East 527 606 37,000  Level FlightAware ADS-B
Thu 06:27:08 PM 42.3100 -81.1390 94° East 525 604 37,000  Level FlightAware ADS-B
Thu 06:27:45 PM 42.3040 -81.0190 94° East 521 600 37,000  Level FlightAware ADS-B
Thu 06:28:19 PM 42.2980 -80.9090 94° East 521 600 37,000  Level FlightAware ADS-B
Thu 06:28:54 PM 42.2900 -80.7980 96° East 519 597 37,000  Level FlightAware ADS-B
Thu 06:29:22 PM 42.2800 -80.7090 99° East 518 596 37,000  Level FlightAware ADS-B
Thu 06:29:59 PM 42.2640 -80.5890 100° East 520 598 37,000  Level FlightAware ADS-B
Thu 06:30:36 PM 42.2480 -80.4710 100° East 522 601 37,000  Level FlightAware ADS-B
Thu 06:31:08 PM 42.2340 -80.3680 100° East 522 601 37,000  Level FlightAware ADS-B
Thu 06:31:43 PM 42.2180 -80.2550 101° East 522 601 37,000  Level FlightAware ADS-B
Thu 06:32:20 PM 42.2030 -80.1390 100° East 523 602 37,000  Level FlightAware ADS-B
Thu 06:32:53 PM 42.1880 -80.0340 101° East 523 602 37,000  Level FlightAware ADS-B
Thu 06:33:28 PM 42.1740 -79.9270 100° East 523 602 37,000  Level FlightAware ADS-B
Thu 06:34:06 PM 42.1570 -79.8050 101° East 526 605 37,000  Level FlightAware ADS-B
Thu 06:34:39 PM 42.1420 -79.7010 101° East 526 605 37,000  Level FlightAware ADS-B
Thu 06:35:15 PM 42.1250 -79.5800 101° East 525 604 37,000  Level FlightAware ADS-B
Thu 06:35:51 PM 42.1080 -79.4610 101° East 526 605 37,000  Level FlightAware ADS-B
Thu 06:36:26 PM 42.0920 -79.3510 101° East 525 604 37,000  Level FlightAware ADS-B
Thu 06:37:00 PM 42.0770 -79.2440 101° East 526 605 37,000  Level FlightAware ADS-B
Thu 06:37:33 PM 42.0600 -79.1330 102° East 529 609 37,000  Level FlightAware ADS-B
Thu 06:38:10 PM 42.0430 -79.0180 101° East 530 610 37,000  Level FlightAware ADS-B
Thu 06:38:45 PM 42.0260 -78.9030 101° East 529 609 37,000  Level FlightAware ADS-B
Thu 06:39:15 PM 42.0120 -78.8050 101° East 523 602 37,000  Level FlightAware ADS-B
Thu 06:39:52 PM 41.9950 -78.6910 101° East 525 604 37,000  Level FlightAware ADS-B
Thu 06:40:30 PM 41.9760 -78.5700 102° East 527 606 37,000  Level FlightAware ADS-B
Thu 06:40:59 PM 41.9620 -78.4740 101° East 527 606 37,000  Level FlightAware ADS-B
Thu 06:41:40 PM 41.9430 -78.3490 102° East 526 605 37,000 -320 Level FlightAware ADS-B
Thu 06:42:14 PM 41.9250 -78.2330 102° East 531 611 36,600 -943 Descending FlightAware ADS-B
Thu 06:42:50 PM 41.9060 -78.1160 102° East 531 611 35,900 -1,250 Descending FlightAware ADS-B
Thu 06:43:26 PM 41.8890 -78.0020 101° East 530 610 35,100 -818 Descending FlightAware ADS-B
Thu 06:43:56 PM 41.8730 -77.9060 103° East 527 606 35,000 -88 Descending FlightAware ADS-B
Thu 06:44:34 PM 41.8470 -77.7860 106° East 525 604 35,000  Level FlightAware ADS-B
Thu 06:45:12 PM 41.8170 -77.6690 109° East 528 608 35,000  Level FlightAware ADS-B
Thu 06:45:44 PM 41.7910 -77.5720 110° East 529 609 35,000  Level FlightAware ADS-B
Thu 06:46:22 PM 41.7600 -77.4540 109° East 528 608 35,000  Level FlightAware ADS-B
Thu 06:46:54 PM 41.7340 -77.3590 110° East 533 613 35,000  Level FlightAware ADS-B
Thu 06:47:36 PM 41.7000 -77.2300 109° East 537 618 35,000  Level FlightAware ADS-B
Thu 06:48:08 PM 41.6720 -77.1280 110° East 532 612 35,000  Level FlightAware ADS-B
Thu 06:48:45 PM 41.6410 -77.0120 110° East 526 605 35,000  Level FlightAware ADS-B
Thu 06:49:23 PM 41.6100 -76.9000 110° East 524 603 35,000  Level FlightAware ADS-B
Thu 06:49:54 PM 41.5850 -76.8070 110° East 526 605 35,000 -79 Level FlightAware ADS-B
Thu 06:50:39 PM 41.5470 -76.6680 110° East 527 606 34,900 -462 Descending FlightAware ADS-B
Thu 06:51:12 PM 41.5200 -76.5690 110° East 527 606 34,400 -1,077 Descending FlightAware ADS-B
Thu 06:51:57 PM 41.4810 -76.4290 110° East 529 609 33,500 -1,271 Descending FlightAware ADS-B
Thu 06:52:37 PM 41.4460 -76.3040 110° East 526 605 32,600 -1,558 Descending FlightAware ADS-B
Thu 06:53:14 PM 41.4150 -76.1930 110° East 530 610 31,500 -1,971 Descending FlightAware ADS-B
Thu 06:53:47 PM 41.3880 -76.0940 110° East 532 612 30,300 -2,400 Descending FlightAware ADS-B
Thu 06:54:24 PM 41.3550 -75.9780 111° Southeast 536 617 28,700 -2,087 Descending FlightAware ADS-B
Thu 06:54:56 PM 41.3290 -75.8850 110° East 526 605 27,900 -1,754 Descending FlightAware ADS-B
Thu 06:55:29 PM 41.2990 -75.7820 111° Southeast 517 595 26,800 -2,174 Descending FlightAware ADS-B
Thu 06:56:05 PM 41.2690 -75.6790 111° Southeast 506 582 25,400 -2,240 Descending FlightAware ADS-B
Thu 06:56:44 PM 41.2330 -75.5690 113° Southeast 489 563 24,000 -1,600 Descending FlightAware ADS-B
Thu 06:57:20 PM 41.2010 -75.4730 114° Southeast 480 552 23,400 -896 Descending FlightAware ADS-B
Thu 06:57:51 PM 41.1740 -75.3920 114° Southeast 477 549 23,000 -353 Descending FlightAware ADS-B
Thu 06:58:28 PM 41.1380 -75.2880 115° Southeast 479 551 23,000  Level FlightAware ADS-B
Thu 06:59:04 PM 41.1100 -75.2040 114° Southeast 483 556 23,000  Level FlightAware ADS-B
Thu 06:59:36 PM 41.0790 -75.1120 114° Southeast 484 557 23,000 -455 Level FlightAware ADS-B
Thu 07:00:10 PM 41.0450 -75.0140 115° Southeast 483 556 22,500 -935 Descending FlightAware ADS-B
Thu 07:00:53 PM 41.0090 -74.9040 113° Southeast 471 542 21,800 -935 Descending FlightAware ADS-B
Thu 07:01:27 PM 40.9900 -74.8100 105° East 482 555 21,300 -986 Descending FlightAware ADS-B
Thu 07:02:06 PM 40.9760 -74.6880 99° East 480 552 20,600 -973 Descending FlightAware ADS-B
Thu 07:02:41 PM 40.9660 -74.5930 98° East 474 545 20,100 -794 Descending FlightAware ADS-B
Thu 07:03:14 PM 40.9560 -74.5000 98° East 456 525 19,700 -522 Descending FlightAware ADS-B
Thu 07:03:50 PM 40.9450 -74.4030 99° East 425 489 19,500 -375 Descending FlightAware ADS-B
Thu 07:04:34 PM 40.9320 -74.2890 99° East 406 467 19,200 -324 Descending FlightAware ADS-B
Thu 07:05:04 PM 40.9240 -74.2180 98° East 382 440 19,100 -250 Descending FlightAware ADS-B
Thu 07:05:22 PM 40.9140 -74.1800 109° East 361 415 19,000 -375 Descending FlightAware ADS-B
Thu 07:05:36 PM 40.8988 -74.1548 129° Southeast 348 400 18,900 -522 Descending FlightAware ADS-B
Thu 07:05:45 PM 40.8891 -74.1426 136° Southeast 343 395 18,800 -1,317 Descending FlightAware ADS-B
Thu 07:06:17 PM 40.8516 -74.0991 139° Southeast 339 390 18,000 -1,548 Descending FlightAware ADS-B
Thu 07:06:47 PM 40.8164 -74.0575 138° Southeast 337 388 17,200 -1,524 Descending FlightAware ADS-B
Thu 07:07:20 PM 40.7786 -74.0131 138° Southeast 330 380 16,400 -1,182 Descending FlightAware ADS-B
Thu 07:07:53 PM 40.7384 -73.9752 144° Southeast 306 352 15,900 -1,364 Descending FlightAware ADS-B (KSNC)
Thu 07:08:26 PM 40.6950 -73.9540 160° South 304 350 14,900 -1,660 Descending FlightAware ADS-B
Thu 07:08:40 PM 40.6767 -73.9448 159° South 303 349 14,600 -1,125 Descending FlightAware ADS-B (KSNC)
Thu 07:09:30 PM 40.6124 -73.9144 160° South 294 338 13,700 -1,091 Descending FlightAware ADS-B
Thu 07:09:35 PM 40.6057 -73.9113 160° South 295 339 13,600 -973 Descending FlightAware ADS-B (KSNC)
Thu 07:10:07 PM 40.5639 -73.8920 161° South 298 343 13,100 -476 Descending FlightAware ADS-B
Thu 07:10:38 PM 40.5240 -73.8741 161° South 298 343 13,100 -345 Level FlightAware ADS-B
Thu 07:11:34 PM 40.4508 -73.8413 161° South 294 338 12,600 -818 Descending FlightAware ADS-B
Thu 07:12:28 PM 40.3850 -73.8130 162° South 271 312 11,600 -930 Descending FlightAware ADS-B
Thu 07:12:45 PM 40.3650 -73.8000 154° Southeast 266 306 11,500 -600 Descending FlightAware ADS-B
Thu 07:12:58 PM 40.3550 -73.7850 131° Southeast 267 307 11,300 -571 Descending FlightAware ADS-B
Thu 07:13:06 PM 40.3520 -73.7720 107° East 267 307 11,300 -732 Level FlightAware ADS-B
Thu 07:13:39 PM 40.3450 -73.7200 100° East 267 307 10,800 -906 Descending FlightAware ADS-B
Thu 07:13:59 PM 40.3520 -73.6910 72° East 276 318 10,500 -1,167 Descending FlightAware ADS-B
Thu 07:14:15 PM 40.3670 -73.6690 48° Northeast 277 319 10,100 -1,273 Descending FlightAware ADS-B
Thu 07:14:32 PM 40.3820 -73.6500 44° Northeast 277 319 9,800 -1,029 Descending FlightAware ADS-B
Thu 07:14:50 PM 40.3970 -73.6280 48° Northeast 275 316 9,500 -947 Descending FlightAware ADS-B
Thu 07:15:10 PM 40.4140 -73.6050 46° Northeast 272 313 9,200 -923 Descending FlightAware ADS-B
Thu 07:15:29 PM 40.4310 -73.5820 46° Northeast 269 310 8,900 -1,034 Descending FlightAware ADS-B
Thu 07:15:39 PM 40.4410 -73.5690 45° Northeast 269 310 8,700 -923 Descending FlightAware ADS-B
Thu 07:15:55 PM 40.4550 -73.5580 31° Northeast 267 307 8,500 -1,000 Descending FlightAware ADS-B
Thu 07:16:15 PM 40.4790 -73.5420 27° Northeast 264 304 8,100 -973 Descending FlightAware ADS-B
Thu 07:16:32 PM 40.4970 -73.5290 29° Northeast 262 302 7,900 -923 Descending FlightAware ADS-B
Thu 07:16:54 PM 40.5210 -73.5130 27° Northeast 260 299 7,500 -1,043 Descending FlightAware ADS-B
Thu 07:17:18 PM 40.5470 -73.4950 28° Northeast 257 296 7,100 -955 Descending FlightAware ADS-B
Thu 07:17:38 PM 40.5680 -73.4820 25° Northeast 253 291 6,800 -857 Descending FlightAware ADS-B
Thu 07:17:46 PM 40.5770 -73.4790 14° North 250 288 6,700 -800 Descending FlightAware ADS-B
Thu 07:18:08 PM 40.6020 -73.4730 10° North 246 283 6,400 -857 Descending FlightAware ADS-B
Thu 07:18:28 PM 40.6240 -73.4690 North 245 282 6,100 -1,050 Descending FlightAware ADS-B
Thu 07:18:48 PM 40.6470 -73.4640 North 244 281 5,700 -1,050 Descending FlightAware ADS-B
Thu 07:19:08 PM 40.6690 -73.4600 North 243 280 5,400 -1,071 Descending FlightAware ADS-B
Thu 07:19:16 PM 40.6790 -73.4600 360° North 242 278 5,200 -1,350 Descending FlightAware ADS-B
Thu 07:19:48 PM 40.7134 -73.4648 354° North 246 283 4,500 -1,286 Descending FlightAware ADS-B (KSNC)
Thu 07:20:26 PM 40.7520 -73.4820 341° North 217 250 3,700 -889 Descending FlightAware ADS-B
Thu 07:20:42 PM 40.7650 -73.4870 344° North 198 228 3,700 -222 Level FlightAware ADS-B
Thu 07:20:53 PM 40.7760 -73.4910 345° North 190 219 3,600 -720 Descending FlightAware ADS-B
Thu 07:21:07 PM 40.7860 -73.4930 351° North 184 212 3,400 -686 Descending FlightAware ADS-B
Thu 07:21:28 PM 40.8040 -73.4970 350° North 178 205 3,200 -800 Descending FlightAware ADS-B
Thu 07:21:52 PM 40.8240 -73.5010 351° North 176 203 2,800 -1,000 Descending FlightAware ADS-B
Thu 07:22:04 PM 40.8330 -73.5040 346° North 172 198 2,600 -900 Descending FlightAware ADS-B
Thu 07:22:12 PM 40.8370 -73.5090 317° Northwest 164 189 2,500 -900 Descending FlightAware ADS-B
Thu 07:22:24 PM 40.8420 -73.5190 303° West 160 184 2,300 -316 Descending FlightAware ADS-B
Thu 07:22:50 PM 40.8510 -73.5380 302° West 160 184 2,300 -250 Level FlightAware ADS-B
Thu 07:23:12 PM 40.8490 -73.5620 264° West 154 177 2,100 -273 Descending FlightAware ADS-B
Thu 07:23:34 PM 40.8410 -73.5790 238° Southwest 155 178 2,100  Level FlightAware ADS-B
Thu 07:24:14 PM 40.8270 -73.6090 238° Southwest 154 177 2,100  Level FlightAware ADS-B
Thu 07:24:28 PM 40.8180 -73.6180 217° Southwest 154 177 2,100  Level FlightAware ADS-B
Thu 07:24:54 PM 40.8060 -73.6330 223° Southwest 154 177 2,100  Level FlightAware ADS-B
Thu 07:25:12 PM 40.7920 -73.6410 203° Southwest 153 176 2,100  Level FlightAware ADS-B
Thu 07:25:32 PM 40.7790 -73.6500 208° Southwest 152 175 2,100  Level FlightAware ADS-B
Thu 07:25:49 PM 40.7680 -73.6580 209° Southwest 153 176 2,100  Level FlightAware ADS-B
Thu 07:26:09 PM 40.7560 -73.6680 212° Southwest 154 177 2,100  Level FlightAware ADS-B
Thu 07:26:28 PM 40.7450 -73.6770 212° Southwest 153 176 2,100  Level FlightAware ADS-B
Thu 07:26:51 PM 40.7300 -73.6880 209° Southwest 142 163 2,100 -400 Level FlightAware ADS-B
Thu 07:27:13 PM 40.7190 -73.6970 212° Southwest 134 154 1,800 -769 Descending FlightAware ADS-B
Thu 07:27:30 PM 40.7110 -73.7040 214° Southwest 125 144 1,600 -571 Descending FlightAware ADS-B
Thu 07:27:55 PM 40.6970 -73.7140 208° Southwest 121 139 1,400 -558 Descending FlightAware ADS-B
Thu 07:28:13 PM 40.6890 -73.7210 214° Southwest 125 144 1,200 -686 Descending FlightAware ADS-B
Thu 07:28:30 PM 40.6810 -73.7270 210° Southwest 124 143 1,000 -811 Descending FlightAware ADS-B
Thu 07:28:50 PM 40.6700 -73.7350 209° Southwest 126 145 700 -750 Descending FlightAware ADS-B
Thu 07:29:10 PM 40.6610 -73.7430 214° Southwest 124 143 500 -545 Descending FlightAware ADS-B
Thu 07:29:34 PM 40.6490 -73.7520 210° Southwest 127 146 300 -558 Descending FlightAware ADS-B
Thu 07:29:53 PM 40.6390 -73.7600 211° Southwest 122 140 100 -632 Descending FlightAware ADS-B
Thu 07:40:12 PM 40.6420 -73.7810 360° North -10 Descending FlightAware ADS-B

Login

Don't have an account? Register now (free) for customized features, flight alerts, and more!